createdAt,value
2019-03-15T00:02:00.118Z,2.70
2019-03-15T00:04:28.386Z,3.10
2019-03-15T00:06:56.639Z,3.27
2019-03-15T00:09:24.901Z,2.13
2019-03-15T00:11:53.151Z,3.00
2019-03-15T00:14:21.407Z,2.70
2019-03-15T00:16:49.670Z,3.03
2019-03-15T00:19:17.925Z,2.20
2019-03-15T00:21:46.175Z,1.70
2019-03-15T00:24:14.431Z,2.40
2019-03-15T00:26:42.681Z,2.07
2019-03-15T00:29:10.935Z,3.30
2019-03-15T00:31:39.184Z,2.20
2019-03-15T00:34:07.443Z,3.60
2019-03-15T00:36:35.698Z,2.40
2019-03-15T00:42:23.863Z,2.67
2019-03-15T00:44:52.124Z,2.80
2019-03-15T00:47:20.394Z,4.72
2019-03-15T00:49:48.709Z,1.80
2019-03-15T00:52:16.967Z,2.67
2019-03-15T00:54:45.222Z,2.63
2019-03-15T00:57:13.493Z,2.73
2019-03-15T00:59:41.745Z,3.10
2019-03-15T01:02:11.438Z,2.08
2019-03-15T01:04:40.420Z,2.60
2019-03-15T01:07:08.672Z,4.58
2019-03-15T01:09:36.961Z,1.72
2019-03-15T01:12:05.213Z,2.40
2019-03-15T01:14:33.492Z,2.62
2019-03-15T01:17:01.741Z,1.82
2019-03-15T01:19:29.995Z,2.10
2019-03-15T01:21:58.247Z,1.90
2019-03-15T01:24:26.509Z,2.00
2019-03-15T01:26:54.782Z,1.90
2019-03-15T01:29:23.030Z,1.63
2019-03-15T01:31:51.304Z,2.83
2019-03-15T01:34:19.566Z,1.53
2019-03-15T01:36:47.823Z,2.20
2019-03-15T01:39:16.064Z,1.80
2019-03-15T01:41:44.329Z,1.60
2019-03-15T01:44:12.572Z,2.03
2019-03-15T01:46:40.838Z,2.33
2019-03-15T01:49:09.111Z,2.77
2019-03-15T01:51:37.340Z,1.87
2019-03-15T01:54:05.587Z,1.10
2019-03-15T01:56:33.856Z,2.02
2019-03-15T01:59:02.113Z,1.13
2019-03-15T02:01:30.893Z,1.73
2019-03-15T02:04:00.362Z,1.43
2019-03-15T02:06:28.629Z,2.37
2019-03-15T02:08:56.874Z,1.67
2019-03-15T02:11:25.139Z,1.57
2019-03-15T02:13:53.390Z,1.90
2019-03-15T02:16:21.646Z,1.10
2019-03-15T02:18:49.921Z,1.77
2019-03-15T02:21:18.542Z,1.37
2019-03-15T02:23:48.493Z,2.08
2019-03-15T02:26:30.678Z,1.17
2019-03-15T02:28:58.915Z,1.50
2019-03-15T02:31:27.177Z,1.17
2019-03-15T02:33:55.445Z,2.50
2019-03-15T02:36:23.692Z,1.40
2019-03-15T02:38:51.929Z,1.77
2019-03-15T02:41:20.212Z,1.00
2019-03-15T02:43:48.468Z,2.15
2019-03-15T02:46:16.726Z,1.90
2019-03-15T02:48:44.974Z,1.57
2019-03-15T02:51:13.231Z,2.70
2019-03-15T02:53:41.499Z,1.98
2019-03-15T02:56:09.759Z,3.22
2019-03-15T02:58:38.002Z,1.72
2019-03-15T03:01:07.637Z,2.00
2019-03-15T03:03:36.219Z,1.77
2019-03-15T03:06:04.471Z,2.03
2019-03-15T03:08:32.721Z,1.80
2019-03-15T03:11:00.987Z,1.80
2019-03-15T03:13:29.249Z,2.10
2019-03-15T03:15:57.519Z,1.90
2019-03-15T03:18:25.803Z,1.83
2019-03-15T03:20:54.033Z,1.67
2019-03-15T03:23:22.273Z,1.20
2019-03-15T03:25:50.537Z,2.45
2019-03-15T03:28:18.781Z,2.07
2019-03-15T03:30:47.289Z,2.73
2019-03-15T03:33:17.041Z,2.13
2019-03-15T03:35:45.302Z,2.50
2019-03-15T03:38:13.559Z,3.63
2019-03-15T03:40:41.814Z,1.93
2019-03-15T03:43:10.354Z,2.37
2019-03-15T03:45:38.632Z,3.20
2019-03-15T03:48:06.885Z,3.03
2019-03-15T03:50:35.145Z,2.27
2019-03-15T03:53:03.411Z,2.97
2019-03-15T03:55:31.676Z,3.97
2019-03-15T03:57:59.937Z,2.47
2019-03-15T04:00:28.358Z,2.90
2019-03-15T04:02:56.632Z,2.42
2019-03-15T04:05:25.198Z,2.70
2019-03-15T04:07:53.461Z,2.67
2019-03-15T04:10:21.717Z,2.37
2019-03-15T04:12:49.977Z,2.00
2019-03-15T04:15:18.251Z,1.98
2019-03-15T04:17:46.567Z,2.33
2019-03-15T04:20:14.763Z,2.73
2019-03-15T04:22:43.027Z,1.90
2019-03-15T04:25:11.350Z,4.00
2019-03-15T04:27:39.614Z,2.70
2019-03-15T04:30:39.183Z,1.87
2019-03-15T04:33:07.429Z,2.23
2019-03-15T04:35:35.699Z,2.03
2019-03-15T04:38:03.962Z,2.20
2019-03-15T04:40:32.227Z,2.92
2019-03-15T04:43:00.498Z,2.47
2019-03-15T04:45:28.743Z,2.70
2019-03-15T04:47:57.001Z,2.67
2019-03-15T04:50:25.287Z,2.33
2019-03-15T04:52:53.614Z,3.17
2019-03-15T04:55:21.884Z,2.77
2019-03-15T04:57:50.149Z,2.87
2019-03-15T05:00:18.397Z,2.50
2019-03-15T05:02:46.682Z,2.40
2019-03-15T05:05:14.952Z,3.17
2019-03-15T05:07:43.210Z,3.00
2019-03-15T05:10:11.471Z,3.37
2019-03-15T05:12:39.757Z,3.60
2019-03-15T05:15:39.928Z,3.27
2019-03-15T05:18:08.200Z,3.00
2019-03-15T05:20:36.462Z,3.77
2019-03-15T05:23:04.726Z,3.47
2019-03-15T05:25:33.003Z,3.37
2019-03-15T05:28:01.264Z,4.83
2019-03-15T05:30:29.535Z,3.75
2019-03-15T05:32:57.799Z,3.65
2019-03-15T05:35:26.090Z,4.23
2019-03-15T05:37:54.345Z,4.97
2019-03-15T05:40:22.629Z,4.03
2019-03-15T05:42:50.902Z,4.67
2019-03-15T05:45:19.152Z,5.17
2019-03-15T05:47:47.432Z,4.35
2019-03-15T05:50:15.971Z,4.55
2019-03-15T05:52:44.213Z,5.53
2019-03-15T05:55:43.721Z,5.03
2019-03-15T05:58:11.991Z,5.17
2019-03-15T06:00:40.300Z,4.53
2019-03-15T06:03:08.584Z,4.57
2019-03-15T06:05:36.841Z,5.20
2019-03-15T06:08:05.183Z,5.10
2019-03-15T06:10:33.448Z,4.73
2019-03-15T06:13:01.700Z,5.30
2019-03-15T06:15:29.982Z,6.20
2019-03-15T06:17:58.255Z,5.83
2019-03-15T06:20:26.527Z,5.10
2019-03-15T06:22:54.813Z,6.00
2019-03-15T06:25:23.081Z,5.37
2019-03-15T06:27:51.408Z,5.60
2019-03-15T06:30:19.632Z,7.43
2019-03-15T06:32:47.998Z,5.97
2019-03-15T06:35:16.259Z,5.80
2019-03-15T06:37:44.536Z,5.80
2019-03-15T06:40:13.798Z,7.30
2019-03-15T06:42:42.853Z,5.37
2019-03-15T06:45:51.143Z,6.53
2019-03-15T06:48:19.406Z,7.30
2019-03-15T06:50:47.677Z,7.00
2019-03-15T06:53:15.946Z,8.40
2019-03-15T06:55:44.214Z,7.67
2019-03-15T06:58:12.462Z,8.20
2019-03-15T07:00:40.727Z,7.50
2019-03-15T07:03:09.008Z,7.93
2019-03-15T07:05:37.285Z,6.10
2019-03-15T07:08:05.562Z,8.00
2019-03-15T07:10:33.838Z,7.93
2019-03-15T07:13:02.095Z,7.87
2019-03-15T07:15:30.350Z,8.28
2019-03-15T07:17:58.636Z,8.68
2019-03-15T07:20:26.902Z,9.60
2019-03-15T07:22:55.176Z,8.40
2019-03-15T07:25:34.673Z,9.63
2019-03-15T07:28:02.947Z,8.10
2019-03-15T07:30:31.179Z,8.68
2019-03-15T07:32:59.441Z,8.63
2019-03-15T07:35:27.706Z,6.90
2019-03-15T07:37:55.962Z,8.23
2019-03-15T07:40:24.231Z,6.43
2019-03-15T07:42:52.489Z,7.20
2019-03-15T07:45:20.760Z,6.40
2019-03-15T07:47:49.013Z,6.87
2019-03-15T07:50:17.286Z,7.90
2019-03-15T07:52:45.560Z,6.92
2019-03-15T07:55:13.829Z,6.57
2019-03-15T07:57:42.102Z,6.40
2019-03-15T08:00:41.931Z,5.90
2019-03-15T08:03:10.216Z,6.62
2019-03-15T08:05:38.467Z,7.42
2019-03-15T08:08:06.752Z,7.62
2019-03-15T08:10:35.019Z,8.48
2019-03-15T08:13:03.277Z,8.67
2019-03-15T08:15:31.546Z,8.03
2019-03-15T08:17:59.822Z,7.40
2019-03-15T08:20:28.062Z,7.50
2019-03-15T08:22:56.413Z,6.83
2019-03-15T08:25:24.654Z,7.67
2019-03-15T08:27:52.905Z,7.17
2019-03-15T08:30:21.342Z,6.77
2019-03-15T08:32:49.598Z,6.70
2019-03-15T08:35:37.245Z,7.70
2019-03-15T08:38:05.605Z,8.80
2019-03-15T08:40:33.861Z,5.80
2019-03-15T08:43:14.954Z,7.73
2019-03-15T08:45:43.212Z,8.10
2019-03-15T08:48:11.492Z,7.70
2019-03-15T08:50:39.772Z,7.53
2019-03-15T08:53:08.060Z,7.33
2019-03-15T08:55:39.611Z,8.73
2019-03-15T08:58:13.831Z,7.23
2019-03-15T09:00:36.321Z,7.27
2019-03-15T09:03:04.594Z,7.40
2019-03-15T09:05:32.869Z,7.08
2019-03-15T09:08:01.153Z,8.03
2019-03-15T09:10:29.427Z,7.60
2019-03-15T09:12:57.759Z,6.65
2019-03-15T09:15:26.014Z,6.80
2019-03-15T09:17:54.273Z,8.20
2019-03-15T09:20:22.543Z,7.27
2019-03-15T09:22:51.464Z,8.40
2019-03-15T09:25:20.900Z,6.97
2019-03-15T09:27:49.793Z,8.13
2019-03-15T09:30:49.232Z,9.83
2019-03-15T09:33:17.491Z,8.63
2019-03-15T09:35:45.753Z,8.03
2019-03-15T09:38:14.015Z,9.25
2019-03-15T09:40:42.269Z,9.30
2019-03-15T09:43:10.539Z,10.73
2019-03-15T09:45:38.821Z,10.37
2019-03-15T09:48:07.098Z,10.80
2019-03-15T09:50:50.168Z,11.10
2019-03-15T09:53:06.133Z,10.83
2019-03-15T09:55:35.322Z,11.83
2019-03-15T09:58:03.597Z,13.73
2019-03-15T10:00:31.871Z,11.60
2019-03-15T10:03:00.151Z,11.90
2019-03-15T10:05:28.402Z,11.70
2019-03-15T10:07:56.673Z,11.70
2019-03-15T10:10:24.961Z,10.30
2019-03-15T10:13:05.084Z,10.80
2019-03-15T10:15:26.169Z,10.17
2019-03-15T10:17:53.189Z,10.77
2019-03-15T10:20:21.460Z,8.97
2019-03-15T10:23:04.715Z,8.33
2019-03-15T10:25:19.791Z,8.98
2019-03-15T10:27:48.054Z,8.53
2019-03-15T10:30:48.217Z,7.40
2019-03-15T10:33:16.445Z,7.83
2019-03-15T10:35:44.705Z,6.08
2019-03-15T10:38:12.972Z,6.73
2019-03-15T10:40:41.224Z,6.03
2019-03-15T10:43:09.484Z,5.63
2019-03-15T10:45:37.739Z,6.13
2019-03-15T10:48:08.075Z,6.63
2019-03-15T10:50:35.980Z,6.43
2019-03-15T10:53:04.247Z,5.43
2019-03-15T10:55:32.511Z,6.53
2019-03-15T10:58:00.760Z,6.05
2019-03-15T11:00:29.207Z,6.67
2019-03-15T11:02:57.462Z,6.53
2019-03-15T11:05:25.717Z,6.83
2019-03-15T11:07:53.976Z,6.10
2019-03-15T11:10:22.230Z,6.58
2019-03-15T11:12:50.729Z,7.03
2019-03-15T11:15:18.992Z,7.97
2019-03-15T11:17:47.261Z,7.03
2019-03-15T11:20:15.515Z,7.57
2019-03-15T11:22:43.789Z,8.83
2019-03-15T11:25:43.187Z,8.38
2019-03-15T11:28:11.446Z,8.93
2019-03-15T11:30:39.704Z,9.50
2019-03-15T11:33:08.048Z,11.10
2019-03-15T11:35:36.312Z,10.25
2019-03-15T11:38:04.592Z,10.90
2019-03-15T11:40:32.867Z,11.57
2019-03-15T11:43:01.139Z,10.13
2019-03-15T11:45:29.441Z,10.48
2019-03-15T11:48:03.848Z,10.08
2019-03-15T11:50:28.536Z,12.10
2019-03-15T11:52:56.806Z,12.03
2019-03-15T11:55:25.089Z,10.58
2019-03-15T11:57:53.375Z,11.97
2019-03-15T12:00:21.640Z,12.03
2019-03-15T12:02:49.907Z,11.50
2019-03-15T12:05:18.254Z,11.90
2019-03-15T12:07:46.536Z,12.23
2019-03-15T12:10:34.143Z,13.23
2019-03-15T12:13:02.392Z,12.83
2019-03-15T12:15:30.670Z,13.83
2019-03-15T12:17:58.937Z,14.03
2019-03-15T12:20:27.203Z,13.68
2019-03-15T12:22:55.462Z,12.40
2019-03-15T12:25:23.730Z,14.27
2019-03-15T12:27:52.010Z,13.73
2019-03-15T12:30:20.282Z,13.50
2019-03-15T12:32:48.558Z,12.53
2019-03-15T12:35:16.982Z,12.13
2019-03-15T12:37:45.255Z,11.43
2019-03-15T12:40:32.872Z,11.70
2019-03-15T12:43:01.131Z,9.90
2019-03-15T12:45:29.394Z,10.63
2019-03-15T12:47:57.653Z,9.10
2019-03-15T12:50:25.903Z,8.57
2019-03-15T12:52:54.175Z,10.30
2019-03-15T12:55:22.427Z,9.45
2019-03-15T12:57:50.684Z,7.33
2019-03-15T13:00:50.370Z,7.80
2019-03-15T13:03:18.619Z,8.40
2019-03-15T13:05:46.880Z,7.53
2019-03-15T13:08:15.139Z,7.47
2019-03-15T13:10:43.397Z,6.60
2019-03-15T13:13:11.649Z,6.87
2019-03-15T13:15:39.915Z,5.97
2019-03-15T13:18:08.189Z,7.03
2019-03-15T13:20:36.443Z,6.70
2019-03-15T13:23:04.700Z,6.27
2019-03-15T13:25:32.969Z,6.00
2019-03-15T13:28:01.229Z,6.13
2019-03-15T13:30:29.493Z,5.20
2019-03-15T13:32:57.753Z,7.22
2019-03-15T13:35:26.006Z,6.10
2019-03-15T13:37:54.271Z,6.03
2019-03-15T13:40:22.534Z,5.10
2019-03-15T13:42:50.862Z,4.70
2019-03-15T13:45:19.058Z,4.00
2019-03-15T13:47:47.301Z,4.20
2019-03-15T13:50:34.894Z,3.40
2019-03-15T13:53:03.140Z,3.73
2019-03-15T13:55:31.420Z,3.93
2019-03-15T13:57:59.661Z,2.77
2019-03-15T14:00:27.926Z,2.47
2019-03-15T14:02:56.196Z,2.53
2019-03-15T14:05:24.458Z,2.60
2019-03-15T14:08:12.333Z,4.35
2019-03-15T14:10:49.181Z,3.02
2019-03-15T14:13:12.265Z,2.63
2019-03-15T14:15:40.611Z,2.97
2019-03-15T14:18:08.871Z,3.47
2019-03-15T14:20:37.120Z,2.67
2019-03-15T14:23:05.366Z,3.22
2019-03-15T14:25:33.617Z,3.80
2019-03-15T14:28:01.881Z,2.73
2019-03-15T14:30:30.136Z,3.37
2019-03-15T14:32:58.382Z,3.07
2019-03-15T14:35:26.646Z,2.63
2019-03-15T14:37:54.890Z,2.60
2019-03-15T14:40:23.242Z,3.90
2019-03-15T14:42:51.497Z,3.27
2019-03-15T14:45:19.756Z,3.30
2019-03-15T14:48:00.630Z,3.23
2019-03-15T14:50:28.892Z,2.65
2019-03-15T14:52:57.185Z,3.87
2019-03-15T14:55:25.390Z,3.73
2019-03-15T14:57:53.792Z,3.40
2019-03-15T15:00:21.997Z,2.87
2019-03-15T15:02:50.262Z,2.90
2019-03-15T15:05:18.513Z,2.97
2019-03-15T15:07:46.763Z,3.13
2019-03-15T15:10:55.054Z,3.05
2019-03-15T15:13:23.329Z,2.10
2019-03-15T15:15:51.597Z,2.87
2019-03-15T15:18:19.844Z,3.53
2019-03-15T15:20:48.126Z,2.87
2019-03-15T15:23:16.440Z,2.55
2019-03-15T15:25:44.690Z,3.02
2019-03-15T15:28:12.962Z,3.62
2019-03-15T15:30:41.245Z,3.60
2019-03-15T15:33:09.541Z,4.25
2019-03-15T15:35:37.785Z,3.80
2019-03-15T15:38:06.051Z,3.63
2019-03-15T15:40:34.351Z,3.13
2019-03-15T15:43:02.620Z,3.37
2019-03-15T15:45:30.869Z,4.13
2019-03-15T15:47:59.151Z,4.47
2019-03-15T15:50:27.408Z,4.70
2019-03-15T15:52:55.679Z,3.40
2019-03-15T15:55:23.932Z,3.33
2019-03-15T15:57:52.183Z,3.87
2019-03-15T16:00:20.467Z,3.60
2019-03-15T16:02:48.718Z,4.47
2019-03-15T16:05:16.972Z,3.03
2019-03-15T16:07:45.222Z,2.98
2019-03-15T16:10:44.634Z,3.87
2019-03-15T16:13:17.416Z,4.00
2019-03-15T16:15:42.838Z,3.87
2019-03-15T16:18:11.094Z,3.70
2019-03-15T16:20:39.351Z,4.60
2019-03-15T16:23:07.610Z,4.10
2019-03-15T16:25:35.880Z,5.00
2019-03-15T16:28:04.139Z,4.33
2019-03-15T16:30:32.416Z,3.50
2019-03-15T16:33:00.676Z,3.77
2019-03-15T16:35:28.930Z,3.83
2019-03-15T16:37:57.193Z,3.67
2019-03-15T16:40:25.468Z,3.23
2019-03-15T16:42:53.767Z,3.47
2019-03-15T16:45:41.610Z,3.43
2019-03-15T16:48:09.872Z,3.40
2019-03-15T16:50:38.155Z,3.37
2019-03-15T16:53:06.403Z,3.97
2019-03-15T16:55:34.676Z,2.77
2019-03-15T16:58:02.916Z,3.73
2019-03-15T17:00:31.189Z,4.63
2019-03-15T17:02:59.479Z,3.95
2019-03-15T17:05:27.832Z,3.20
2019-03-15T17:07:56.062Z,4.17
2019-03-15T17:10:24.331Z,3.03
2019-03-15T17:12:55.573Z,4.03
2019-03-15T17:15:41.945Z,3.70
2019-03-15T17:18:10.200Z,3.60
2019-03-15T17:20:38.471Z,2.90
2019-03-15T17:23:06.747Z,3.40
2019-03-15T17:25:35.010Z,3.47
2019-03-15T17:28:03.271Z,3.13
2019-03-15T17:30:50.660Z,3.93
2019-03-15T17:33:18.949Z,4.37
2019-03-15T17:35:47.200Z,4.30
2019-03-15T17:38:15.462Z,4.17
2019-03-15T17:40:43.712Z,3.10
2019-03-15T17:43:11.975Z,4.10
2019-03-15T17:45:40.226Z,3.60
2019-03-15T17:48:08.495Z,4.40
2019-03-15T17:50:36.745Z,4.43
2019-03-15T17:53:05.002Z,4.20
2019-03-15T17:55:33.269Z,4.17
2019-03-15T17:58:01.533Z,5.27
2019-03-15T18:01:01.137Z,4.80
2019-03-15T18:03:29.406Z,4.33
2019-03-15T18:05:57.659Z,4.45
2019-03-15T18:08:25.911Z,3.13
2019-03-15T18:10:54.160Z,4.10
2019-03-15T18:13:22.416Z,4.47
2019-03-15T18:15:50.686Z,4.90
2019-03-15T18:18:18.960Z,2.70
2019-03-15T18:20:47.201Z,4.03
2019-03-15T18:23:15.465Z,4.10
2019-03-15T18:25:43.731Z,4.00
2019-03-15T18:28:11.991Z,3.65
2019-03-15T18:30:40.269Z,3.63
2019-03-15T18:33:08.533Z,4.47
2019-03-15T18:35:36.797Z,4.63
2019-03-15T18:38:05.069Z,4.67
2019-03-15T18:40:33.335Z,4.57
2019-03-15T18:43:01.592Z,5.30
2019-03-15T18:45:29.841Z,4.05
2019-03-15T18:47:58.109Z,4.70
2019-03-15T18:53:46.217Z,4.87
2019-03-15T18:56:14.492Z,4.08
2019-03-15T18:58:42.764Z,4.35
2019-03-15T19:01:11.043Z,4.60
2019-03-15T19:03:39.478Z,4.08
2019-03-15T19:06:07.752Z,5.50
2019-03-15T19:08:36.020Z,4.77
2019-03-15T19:11:04.281Z,4.03
2019-03-15T19:13:32.539Z,4.30
2019-03-15T19:16:00.792Z,5.10
2019-03-15T19:18:29.054Z,4.60
2019-03-15T19:20:57.361Z,4.50
2019-03-15T19:23:25.625Z,4.30
2019-03-15T19:25:53.897Z,4.63
2019-03-15T19:28:22.162Z,4.42
2019-03-15T19:30:50.434Z,6.60
2019-03-15T19:33:18.713Z,3.73
2019-03-15T19:35:47.029Z,4.37
2019-03-15T19:38:15.312Z,3.97
2019-03-15T19:40:43.623Z,4.00
2019-03-15T19:43:11.904Z,4.20
2019-03-15T19:45:40.221Z,5.28
2019-03-15T19:48:08.510Z,4.73
2019-03-15T19:50:36.818Z,3.60
2019-03-15T19:53:05.128Z,5.33
2019-03-15T19:55:33.445Z,4.60
2019-03-15T19:58:01.840Z,4.40
2019-03-15T20:00:30.134Z,3.50
2019-03-15T20:02:58.459Z,4.73
2019-03-15T20:05:26.774Z,3.43
2019-03-15T20:07:55.089Z,4.93
2019-03-15T20:10:23.411Z,4.37
2019-03-15T20:12:51.720Z,5.60
2019-03-15T20:15:20.029Z,4.30
2019-03-15T20:17:48.353Z,5.33
2019-03-15T20:23:38.893Z,4.08
2019-03-15T20:26:07.212Z,3.90
2019-03-15T20:28:35.609Z,4.73
2019-03-15T20:31:03.929Z,3.77
2019-03-15T20:33:32.234Z,4.30
2019-03-15T20:36:00.542Z,5.70
2019-03-15T20:41:49.419Z,5.50
2019-03-15T20:44:27.800Z,4.33
2019-03-15T20:46:47.770Z,5.03
2019-03-15T20:49:16.042Z,4.03
2019-03-15T20:51:44.353Z,6.50
2019-03-15T20:54:12.643Z,5.23
2019-03-15T20:56:40.958Z,5.23
2019-03-15T20:59:09.279Z,4.53
2019-03-15T21:01:37.894Z,4.40
2019-03-15T21:04:06.193Z,4.70
2019-03-15T21:06:34.447Z,6.00
2019-03-15T21:09:02.789Z,4.77
2019-03-15T21:11:31.076Z,4.63
2019-03-15T21:13:59.379Z,7.20
2019-03-15T21:16:27.638Z,6.50
2019-03-15T21:18:55.913Z,6.08
2019-03-15T21:21:24.198Z,5.10
2019-03-15T21:23:52.457Z,6.45
2019-03-15T21:26:20.722Z,6.05
2019-03-15T21:28:48.986Z,5.67
2019-03-15T21:31:17.254Z,5.30
2019-03-15T21:33:45.512Z,4.74
2019-03-15T21:36:13.777Z,5.40
2019-03-15T21:38:48.073Z,4.33
2019-03-15T21:41:12.019Z,5.00
2019-03-15T21:43:40.271Z,5.60
2019-03-15T21:46:08.555Z,4.73
2019-03-15T21:48:36.816Z,3.80
2019-03-15T21:51:05.097Z,4.30
2019-03-15T21:53:33.345Z,4.17
2019-03-15T21:56:01.606Z,4.13
2019-03-15T21:58:29.878Z,4.35
2019-03-15T22:01:02.580Z,5.40
2019-03-15T22:03:28.124Z,4.78
2019-03-15T22:09:15.288Z,4.10
2019-03-15T22:11:43.580Z,4.65
2019-03-15T22:14:11.834Z,4.73
2019-03-15T22:16:40.092Z,5.87
2019-03-15T22:19:08.356Z,6.03
2019-03-15T22:21:36.602Z,4.83
2019-03-15T22:26:53.821Z,4.90
2019-03-15T22:29:22.082Z,6.77
2019-03-15T22:31:50.345Z,5.50
2019-03-15T22:34:18.612Z,6.97
2019-03-15T22:36:46.881Z,5.10
2019-03-15T22:39:15.142Z,4.03
2019-03-15T22:41:43.486Z,5.50
2019-03-15T22:44:11.741Z,5.00
2019-03-15T22:49:48.070Z,4.92
2019-03-15T22:52:16.333Z,5.13
2019-03-15T22:54:44.603Z,5.03
2019-03-15T22:57:12.867Z,4.22
2019-03-15T22:59:41.120Z,5.03
2019-03-15T23:02:09.384Z,4.60
2019-03-15T23:04:37.646Z,4.23
2019-03-15T23:07:05.908Z,4.40
2019-03-15T23:09:34.164Z,4.70
2019-03-15T23:12:02.429Z,3.57
2019-03-15T23:14:30.683Z,3.67
2019-03-15T23:20:44.055Z,4.80
2019-03-15T23:23:23.241Z,4.42
2019-03-15T23:25:42.296Z,3.87
2019-03-15T23:30:57.859Z,3.10
2019-03-15T23:33:26.107Z,5.33
2019-03-15T23:35:54.594Z,5.00
2019-03-15T23:38:22.847Z,4.50
2019-03-15T23:40:51.105Z,4.23
2019-03-15T23:43:19.443Z,4.17
2019-03-15T23:45:47.715Z,5.30
2019-03-15T23:48:15.975Z,4.47
2019-03-15T23:50:44.231Z,5.60
2019-03-15T23:53:31.828Z,4.63
2019-03-15T23:56:00.081Z,5.05
2019-03-15T23:58:28.332Z,4.45
